createdAt,value
2018-07-31T00:04:00.000Z,98807
2018-07-31T00:09:00.000Z,98806
2018-07-31T00:14:00.000Z,98807
2018-07-31T00:19:00.000Z,98806
2018-07-31T00:24:00.000Z,98804
2018-07-31T00:29:00.000Z,98801
2018-07-31T00:34:00.000Z,98802
2018-07-31T00:39:00.000Z,98797
2018-07-31T00:44:00.000Z,98793
2018-07-31T00:49:00.000Z,98799
2018-07-31T00:54:00.000Z,98800
2018-07-31T00:59:00.000Z,98792
2018-07-31T01:04:00.000Z,98787
2018-07-31T01:09:00.000Z,98796
2018-07-31T01:14:00.000Z,98799
2018-07-31T01:19:00.000Z,98796
2018-07-31T01:24:00.000Z,98788
2018-07-31T01:29:00.000Z,98799
2018-07-31T01:34:00.000Z,98791
2018-07-31T01:39:00.000Z,98785
2018-07-31T01:44:00.000Z,98789
2018-07-31T01:49:00.000Z,98787
2018-07-31T01:54:00.000Z,98778
2018-07-31T01:59:00.000Z,98791
2018-07-31T02:04:00.000Z,98781
2018-07-31T02:09:00.000Z,98792
2018-07-31T02:14:00.000Z,98786
2018-07-31T02:19:00.000Z,98793
2018-07-31T02:24:00.000Z,98792
2018-07-31T02:29:00.000Z,98801
2018-07-31T02:34:00.000Z,98803
2018-07-31T02:39:00.000Z,98797
2018-07-31T02:44:00.000Z,98785
2018-07-31T02:49:00.000Z,98780
2018-07-31T02:54:00.000Z,98780
2018-07-31T02:59:00.000Z,98788
2018-07-31T03:04:00.000Z,98790
2018-07-31T03:09:00.000Z,98783
2018-07-31T03:14:00.000Z,98790
2018-07-31T03:19:00.000Z,98783
2018-07-31T03:24:00.000Z,98788
2018-07-31T03:29:00.000Z,98784
2018-07-31T03:34:00.000Z,98789
2018-07-31T03:39:00.000Z,98790
2018-07-31T03:44:00.000Z,98790
2018-07-31T03:49:00.000Z,98788
2018-07-31T03:54:00.000Z,98791
2018-07-31T03:59:00.000Z,98798
2018-07-31T04:04:00.000Z,98802
2018-07-31T04:09:00.000Z,98806
2018-07-31T04:14:00.000Z,98808
2018-07-31T04:19:00.000Z,98806
2018-07-31T04:24:00.000Z,98799
2018-07-31T04:29:00.000Z,98788
2018-07-31T04:34:00.000Z,98781
2018-07-31T04:39:00.000Z,98789
2018-07-31T04:44:00.000Z,98778
2018-07-31T04:49:00.000Z,98778
2018-07-31T04:54:00.000Z,98773
2018-07-31T04:59:00.000Z,98783
2018-07-31T05:04:00.000Z,98777
2018-07-31T05:09:00.000Z,98777
2018-07-31T05:14:00.000Z,98779
2018-07-31T05:19:00.000Z,98778
2018-07-31T05:24:00.000Z,98774
2018-07-31T05:29:00.000Z,98792
2018-07-31T05:34:00.000Z,98790
2018-07-31T05:39:00.000Z,98799
2018-07-31T05:44:00.000Z,98798
2018-07-31T05:49:00.000Z,98805
2018-07-31T05:54:00.000Z,98811
2018-07-31T05:59:00.000Z,98815
2018-07-31T06:05:00.000Z,98812
2018-07-31T06:10:00.000Z,98813
2018-07-31T06:15:00.000Z,98811
2018-07-31T06:20:00.000Z,98813
2018-07-31T06:25:00.000Z,98817
2018-07-31T06:30:00.000Z,98817
2018-07-31T06:35:00.000Z,98827
2018-07-31T06:40:00.000Z,98820
2018-07-31T06:45:00.000Z,98809
2018-07-31T06:50:00.000Z,98813
2018-07-31T06:55:00.000Z,98813
2018-07-31T07:00:00.000Z,98814
2018-07-31T07:05:00.000Z,98828
2018-07-31T07:10:00.000Z,98823
2018-07-31T07:15:00.000Z,98820
2018-07-31T07:20:00.000Z,98821
2018-07-31T07:25:00.000Z,98828
2018-07-31T07:30:00.000Z,98823
2018-07-31T07:35:00.000Z,98828
2018-07-31T07:40:00.000Z,98828
2018-07-31T07:45:00.000Z,98824
2018-07-31T07:50:00.000Z,98836
2018-07-31T07:55:00.000Z,98835
2018-07-31T08:00:00.000Z,98841
2018-07-31T08:05:00.000Z,98849
2018-07-31T08:10:00.000Z,98843
2018-07-31T08:15:00.000Z,98834
2018-07-31T08:20:00.000Z,98832
2018-07-31T08:25:00.000Z,98828
2018-07-31T08:30:00.000Z,98829
2018-07-31T08:35:00.000Z,98839
2018-07-31T08:40:00.000Z,98827
2018-07-31T08:45:00.000Z,98833
2018-07-31T08:50:00.000Z,98827
2018-07-31T08:55:00.000Z,98815
2018-07-31T09:00:00.000Z,98806
2018-07-31T09:05:00.000Z,98804
2018-07-31T09:10:00.000Z,98815
2018-07-31T09:15:00.000Z,98811
2018-07-31T09:20:00.000Z,98817
2018-07-31T09:25:00.000Z,98812
2018-07-31T09:30:00.000Z,98814
2018-07-31T09:35:00.000Z,98813
2018-07-31T09:40:00.000Z,98822
2018-07-31T09:45:00.000Z,98814
2018-07-31T09:50:00.000Z,98805
2018-07-31T09:55:00.000Z,98813
2018-07-31T10:00:00.000Z,98812
2018-07-31T10:05:00.000Z,98807
2018-07-31T10:10:00.000Z,98809
2018-07-31T10:15:00.000Z,98799
2018-07-31T10:20:00.000Z,98814
2018-07-31T10:25:00.000Z,98810
2018-07-31T10:30:00.000Z,98802
2018-07-31T10:35:00.000Z,98802
2018-07-31T10:40:00.000Z,98807
2018-07-31T10:45:00.000Z,98807
2018-07-31T10:50:00.000Z,98802
2018-07-31T10:55:00.000Z,98785
2018-07-31T11:00:00.000Z,98797
2018-07-31T11:05:00.000Z,98794
2018-07-31T11:10:00.000Z,98788
2018-07-31T11:15:00.000Z,98782
2018-07-31T11:20:00.000Z,98777
2018-07-31T11:25:00.000Z,98771
2018-07-31T11:30:00.000Z,98769
2018-07-31T11:35:00.000Z,98772
2018-07-31T11:40:00.000Z,98758
2018-07-31T11:45:00.000Z,98759
2018-07-31T11:50:00.000Z,98764
2018-07-31T11:55:00.000Z,98765
2018-07-31T12:01:00.000Z,98761
2018-07-31T12:06:00.000Z,98756
2018-07-31T12:11:00.000Z,98748
2018-07-31T12:16:00.000Z,98744
2018-07-31T12:21:00.000Z,98741
2018-07-31T12:26:00.000Z,98740
2018-07-31T12:31:00.000Z,98733
2018-07-31T12:36:00.000Z,98738
2018-07-31T12:41:00.000Z,98730
2018-07-31T12:46:00.000Z,98727
2018-07-31T12:51:00.000Z,98727
2018-07-31T12:56:00.000Z,98718
2018-07-31T13:01:00.000Z,98717
2018-07-31T13:06:00.000Z,98713
2018-07-31T13:11:00.000Z,98713
2018-07-31T13:16:00.000Z,98716
2018-07-31T13:21:00.000Z,98713
2018-07-31T13:26:00.000Z,98709
2018-07-31T13:31:00.000Z,98697
2018-07-31T13:36:00.000Z,98703
2018-07-31T13:41:00.000Z,98700
2018-07-31T13:46:00.000Z,98690
2018-07-31T13:51:00.000Z,98695
2018-07-31T13:56:00.000Z,98692
2018-07-31T14:01:00.000Z,98701
2018-07-31T14:06:00.000Z,98690
2018-07-31T14:11:00.000Z,98692
2018-07-31T14:16:00.000Z,98689
2018-07-31T14:21:00.000Z,98688
2018-07-31T14:26:00.000Z,98685
2018-07-31T14:31:00.000Z,98687
2018-07-31T14:36:00.000Z,98687
2018-07-31T14:41:00.000Z,98676
2018-07-31T14:46:00.000Z,98682
2018-07-31T14:51:00.000Z,98672
2018-07-31T14:56:00.000Z,98673
2018-07-31T15:01:00.000Z,98670
2018-07-31T15:06:00.000Z,98667
2018-07-31T15:11:00.000Z,98675
2018-07-31T15:16:00.000Z,98672
2018-07-31T15:21:00.000Z,98663
2018-07-31T15:26:00.000Z,98654
2018-07-31T15:31:00.000Z,98655
2018-07-31T15:36:00.000Z,98656
2018-07-31T15:41:00.000Z,98661
2018-07-31T15:46:00.000Z,98656
2018-07-31T15:51:00.000Z,98657
2018-07-31T15:56:00.000Z,98651
2018-07-31T16:01:00.000Z,98652
2018-07-31T16:06:00.000Z,98648
2018-07-31T16:11:00.000Z,98653
2018-07-31T16:16:00.000Z,98655
2018-07-31T16:21:00.000Z,98659
2018-07-31T16:26:00.000Z,98659
2018-07-31T16:31:00.000Z,98661
2018-07-31T16:36:00.000Z,98657
2018-07-31T16:41:00.000Z,98661
2018-07-31T16:46:00.000Z,98662
2018-07-31T16:51:00.000Z,98654
2018-07-31T16:56:00.000Z,98652
2018-07-31T17:01:00.000Z,98651
2018-07-31T17:06:00.000Z,98660
2018-07-31T17:11:00.000Z,98661
2018-07-31T17:16:00.000Z,98666
2018-07-31T17:21:00.000Z,98661
2018-07-31T17:26:00.000Z,98661
2018-07-31T17:31:00.000Z,98663
2018-07-31T17:36:00.000Z,98662
2018-07-31T17:41:00.000Z,98677
2018-07-31T17:46:00.000Z,98681
2018-07-31T17:51:00.000Z,98679
2018-07-31T17:56:00.000Z,98687
2018-07-31T18:01:00.000Z,98689
2018-07-31T18:06:00.000Z,98687
2018-07-31T18:12:00.000Z,98700
2018-07-31T18:17:00.000Z,98705
2018-07-31T18:22:00.000Z,98706
2018-07-31T18:27:00.000Z,98706
2018-07-31T18:32:00.000Z,98719
2018-07-31T18:37:00.000Z,98727
2018-07-31T18:42:00.000Z,98725
2018-07-31T18:47:00.000Z,98734
2018-07-31T18:52:00.000Z,98736
2018-07-31T18:57:00.000Z,98746
2018-07-31T19:02:00.000Z,98748
2018-07-31T19:07:00.000Z,98759
2018-07-31T19:12:00.000Z,98765
2018-07-31T19:17:00.000Z,98776
2018-07-31T19:22:00.000Z,98776
2018-07-31T19:27:00.000Z,98774
2018-07-31T19:32:00.000Z,98779
2018-07-31T19:37:00.000Z,98789
2018-07-31T19:42:00.000Z,98789
2018-07-31T19:47:00.000Z,98785
2018-07-31T19:52:00.000Z,98794
2018-07-31T19:57:00.000Z,98793
2018-07-31T20:02:00.000Z,98800
2018-07-31T20:07:00.000Z,98794
2018-07-31T20:12:00.000Z,98795
2018-07-31T20:17:00.000Z,98811
2018-07-31T20:22:00.000Z,98806
2018-07-31T20:27:00.000Z,98813
2018-07-31T20:32:00.000Z,98815
2018-07-31T20:37:00.000Z,98820
2018-07-31T20:42:00.000Z,98816
2018-07-31T20:47:00.000Z,98813
2018-07-31T20:52:00.000Z,98810
2018-07-31T20:57:00.000Z,98815
2018-07-31T21:02:00.000Z,98827
2018-07-31T21:07:00.000Z,98817
2018-07-31T21:12:00.000Z,98821
2018-07-31T21:17:00.000Z,98823
2018-07-31T21:22:00.000Z,98827
2018-07-31T21:27:00.000Z,98826
2018-07-31T21:32:00.000Z,98817
2018-07-31T21:37:00.000Z,98823
2018-07-31T21:42:00.000Z,98822
2018-07-31T21:47:00.000Z,98826
2018-07-31T21:52:00.000Z,98821
2018-07-31T21:57:00.000Z,98813
2018-07-31T22:02:00.000Z,98808
2018-07-31T22:07:00.000Z,98804
2018-07-31T22:12:00.000Z,98810
2018-07-31T22:17:00.000Z,98805
2018-07-31T22:22:00.000Z,98804
2018-07-31T22:27:00.000Z,98812
2018-07-31T22:32:00.000Z,98807
2018-07-31T22:37:00.000Z,98806
2018-07-31T22:42:00.000Z,98816
2018-07-31T22:47:00.000Z,98814
2018-07-31T22:52:00.000Z,98809
2018-07-31T22:57:00.000Z,98813
2018-07-31T23:02:00.000Z,98817
2018-07-31T23:07:00.000Z,98830
2018-07-31T23:12:00.000Z,98819
2018-07-31T23:17:00.000Z,98811
2018-07-31T23:22:00.000Z,98815
2018-07-31T23:27:00.000Z,98813
2018-07-31T23:32:00.000Z,98809
2018-07-31T23:37:00.000Z,98803
2018-07-31T23:42:00.000Z,98808
2018-07-31T23:47:00.000Z,98801
2018-07-31T23:52:00.000Z,98805
2018-07-31T23:57:00.000Z,98805
